sensor_id;sensor_type;location;lat;lon;timestamp;pressure;altitude;pressure_sealevel;temperature;humidity
63088;BME280;49173;43.164;27.786;2022-12-20T00:01:20;102868.25;;;0.38;73.54
63088;BME280;49173;43.164;27.786;2022-12-20T00:03:50;102854.13;;;0.36;73.75
63088;BME280;49173;43.164;27.786;2022-12-20T00:06:16;102862.84;;;0.34;73.90
63088;BME280;49173;43.164;27.786;2022-12-20T00:08:43;102867.16;;;0.30;74.11
63088;BME280;49173;43.164;27.786;2022-12-20T00:11:10;102869.91;;;0.35;73.84
63088;BME280;49173;43.164;27.786;2022-12-20T00:13:36;102869.75;;;0.29;73.92
63088;BME280;49173;43.164;27.786;2022-12-20T00:16:10;102870.38;;;0.20;73.80
63088;BME280;49173;43.164;27.786;2022-12-20T00:18:38;102882.28;;;0.06;74.16
63088;BME280;49173;43.164;27.786;2022-12-20T00:21:06;102879.47;;;-0.01;74.47
63088;BME280;49173;43.164;27.786;2022-12-20T00:23:33;102880.34;;;-0.02;75.00
63088;BME280;49173;43.164;27.786;2022-12-20T00:26:06;102877.88;;;0.05;75.17
63088;BME280;49173;43.164;27.786;2022-12-20T00:28:33;102865.75;;;0.11;74.96
63088;BME280;49173;43.164;27.786;2022-12-20T00:31:00;102871.28;;;0.20;74.99
63088;BME280;49173;43.164;27.786;2022-12-20T00:33:26;102872.31;;;0.25;74.80
63088;BME280;49173;43.164;27.786;2022-12-20T00:35:54;102868.69;;;0.22;74.60
63088;BME280;49173;43.164;27.786;2022-12-20T00:38:24;102859.94;;;0.24;74.60
63088;BME280;49173;43.164;27.786;2022-12-20T00:43:28;102851.31;;;0.30;74.61
63088;BME280;49173;43.164;27.786;2022-12-20T00:45:54;102854.84;;;0.31;74.61
63088;BME280;49173;43.164;27.786;2022-12-20T00:48:20;102846.91;;;0.31;74.63
63088;BME280;49173;43.164;27.786;2022-12-20T00:50:46;102843.38;;;0.30;74.43
63088;BME280;49173;43.164;27.786;2022-12-20T00:53:12;102832.03;;;0.34;74.06
63088;BME280;49173;43.164;27.786;2022-12-20T00:55:42;102831.13;;;0.34;74.48
63088;BME280;49173;43.164;27.786;2022-12-20T00:58:09;102826.69;;;0.31;74.25
63088;BME280;49173;43.164;27.786;2022-12-20T01:00:35;102824.03;;;0.31;74.19
63088;BME280;49173;43.164;27.786;2022-12-20T01:03:01;102830.19;;;0.30;74.33
63088;BME280;49173;43.164;27.786;2022-12-20T01:05:27;102829.22;;;0.28;74.36
63088;BME280;49173;43.164;27.786;2022-12-20T01:07:53;102826.56;;;0.26;74.21
63088;BME280;49173;43.164;27.786;2022-12-20T01:10:18;102831.88;;;0.28;74.23
63088;BME280;49173;43.164;27.786;2022-12-20T01:12:45;102830.97;;;0.27;74.57
63088;BME280;49173;43.164;27.786;2022-12-20T01:15:10;102819.63;;;0.30;74.18
63088;BME280;49173;43.164;27.786;2022-12-20T01:17:36;102814.38;;;0.32;74.00
63088;BME280;49173;43.164;27.786;2022-12-20T01:20:03;102823.16;;;0.31;74.39
63088;BME280;49173;43.164;27.786;2022-12-20T01:22:31;102824.06;;;0.33;74.31
63088;BME280;49173;43.164;27.786;2022-12-20T01:24:57;102818.72;;;0.30;74.00
63088;BME280;49173;43.164;27.786;2022-12-20T01:27:23;102806.41;;;0.30;73.98
63088;BME280;49173;43.164;27.786;2022-12-20T01:29:49;102809.91;;;0.29;73.54
63088;BME280;49173;43.164;27.786;2022-12-20T01:32:15;102809.03;;;0.29;73.76
63088;BME280;49173;43.164;27.786;2022-12-20T01:34:41;102805.44;;;0.28;73.46
63088;BME280;49173;43.164;27.786;2022-12-20T01:37:07;102797.47;;;0.25;73.72
63088;BME280;49173;43.164;27.786;2022-12-20T01:39:36;102790.31;;;0.21;73.72
63088;BME280;49173;43.164;27.786;2022-12-20T01:42:03;102777.03;;;0.18;73.78
63088;BME280;49173;43.164;27.786;2022-12-20T01:46:55;102767.16;;;0.11;73.25
63088;BME280;49173;43.164;27.786;2022-12-20T01:51:59;102766.34;;;0.13;73.22
63088;BME280;49173;43.164;27.786;2022-12-20T01:54:31;102762.72;;;0.08;73.16
63088;BME280;49173;43.164;27.786;2022-12-20T01:57:21;102759.09;;;0.06;73.74
63088;BME280;49173;43.164;27.786;2022-12-20T01:59:50;102751.88;;;-0.01;73.32
63088;BME280;49173;43.164;27.786;2022-12-20T02:02:17;102755.41;;;-0.01;73.76
63088;BME280;49173;43.164;27.786;2022-12-20T02:04:42;102758.13;;;0.01;73.33
63088;BME280;49173;43.164;27.786;2022-12-20T02:07:11;102770.34;;;-0.01;73.49
63088;BME280;49173;43.164;27.786;2022-12-20T02:09:38;102758.88;;;-0.03;73.63
63088;BME280;49173;43.164;27.786;2022-12-20T02:12:20;102764.00;;;-0.08;73.35
63088;BME280;49173;43.164;27.786;2022-12-20T02:15:11;102761.38;;;-0.08;73.41
63088;BME280;49173;43.164;27.786;2022-12-20T02:17:55;102758.66;;;-0.11;73.53
63088;BME280;49173;43.164;27.786;2022-12-20T02:32:35;102734.91;;;-0.11;74.30
63088;BME280;49173;43.164;27.786;2022-12-20T02:34:36;102742.84;;;-0.11;74.34
63088;BME280;49173;43.164;27.786;2022-12-20T02:37:03;102740.91;;;-0.16;74.04
63088;BME280;49173;43.164;27.786;2022-12-20T02:39:30;102737.41;;;-0.15;74.12
63088;BME280;49173;43.164;27.786;2022-12-20T02:42:06;102749.63;;;-0.20;73.98
63088;BME280;49173;43.164;27.786;2022-12-20T02:44:36;102751.38;;;-0.21;73.83
63088;BME280;49173;43.164;27.786;2022-12-20T02:47:33;102751.00;;;-0.33;73.88
63088;BME280;49173;43.164;27.786;2022-12-20T02:50:02;102746.69;;;-0.30;73.96
63088;BME280;49173;43.164;27.786;2022-12-20T02:52:30;102759.03;;;-0.29;74.07
63088;BME280;49173;43.164;27.786;2022-12-20T02:54:57;102738.75;;;-0.31;74.32
63088;BME280;49173;43.164;27.786;2022-12-20T03:00:19;102739.78;;;-0.26;74.49
63088;BME280;49173;43.164;27.786;2022-12-20T03:02:47;102739.78;;;-0.26;74.50
63088;BME280;49173;43.164;27.786;2022-12-20T03:05:34;102734.47;;;-0.28;74.57
63088;BME280;49173;43.164;27.786;2022-12-20T03:08:00;102726.44;;;-0.31;74.73
63088;BME280;49173;43.164;27.786;2022-12-20T03:10:26;102724.66;;;-0.32;74.83
63088;BME280;49173;43.164;27.786;2022-12-20T03:12:52;102727.31;;;-0.32;74.77
63088;BME280;49173;43.164;27.786;2022-12-20T03:15:18;102727.38;;;-0.29;74.64
63088;BME280;49173;43.164;27.786;2022-12-20T03:17:44;102732.59;;;-0.32;74.76
63088;BME280;49173;43.164;27.786;2022-12-20T03:20:10;102731.69;;;-0.32;74.36
63088;BME280;49173;43.164;27.786;2022-12-20T03:22:36;102716.69;;;-0.35;74.56
63088;BME280;49173;43.164;27.786;2022-12-20T03:25:03;102716.63;;;-0.36;74.56
63088;BME280;49173;43.164;27.786;2022-12-20T03:27:29;102733.41;;;-0.34;74.49
63088;BME280;49173;43.164;27.786;2022-12-20T03:29:54;102731.56;;;-0.37;74.32
63088;BME280;49173;43.164;27.786;2022-12-20T03:32:21;102724.50;;;-0.38;74.54
63088;BME280;49173;43.164;27.786;2022-12-20T03:34:47;102727.25;;;-0.35;74.53
63088;BME280;49173;43.164;27.786;2022-12-20T03:37:13;102732.59;;;-0.32;74.35
63088;BME280;49173;43.164;27.786;2022-12-20T03:39:39;102720.22;;;-0.34;74.54
63088;BME280;49173;43.164;27.786;2022-12-20T03:42:05;102720.31;;;-0.30;74.35
63088;BME280;49173;43.164;27.786;2022-12-20T03:44:30;102714.97;;;-0.33;74.35
63088;BME280;49173;43.164;27.786;2022-12-20T03:46:56;102718.44;;;-0.35;74.46
63088;BME280;49173;43.164;27.786;2022-12-20T03:49:22;102721.97;;;-0.35;74.63
63088;BME280;49173;43.164;27.786;2022-12-20T03:51:48;102718.50;;;-0.32;74.34
63088;BME280;49173;43.164;27.786;2022-12-20T03:54:13;102722.97;;;-0.30;74.73
63088;BME280;49173;43.164;27.786;2022-12-20T03:56:39;102716.81;;;-0.29;74.69
63088;BME280;49173;43.164;27.786;2022-12-20T03:59:05;102719.53;;;-0.27;75.11
63088;BME280;49173;43.164;27.786;2022-12-20T04:01:31;102728.34;;;-0.26;74.57
63088;BME280;49173;43.164;27.786;2022-12-20T04:04:01;102717.00;;;-0.22;74.86
63088;BME280;49173;43.164;27.786;2022-12-20T04:06:27;102715.31;;;-0.20;75.07
63088;BME280;49173;43.164;27.786;2022-12-20T04:08:53;102717.09;;;-0.19;74.97
63088;BME280;49173;43.164;27.786;2022-12-20T04:11:19;102728.44;;;-0.22;75.03
63088;BME280;49173;43.164;27.786;2022-12-20T04:13:50;102729.28;;;-0.23;74.84
63088;BME280;49173;43.164;27.786;2022-12-20T04:16:19;102730.28;;;-0.19;75.03
63088;BME280;49173;43.164;27.786;2022-12-20T04:18:45;102732.03;;;-0.20;74.83
63088;BME280;49173;43.164;27.786;2022-12-20T04:21:11;102714.41;;;-0.21;74.72
63088;BME280;49173;43.164;27.786;2022-12-20T04:23:39;102712.66;;;-0.20;74.78
63088;BME280;49173;43.164;27.786;2022-12-20T04:26:06;102712.72;;;-0.19;74.96
63088;BME280;49173;43.164;27.786;2022-12-20T04:28:33;102725.06;;;-0.16;74.71
63088;BME280;49173;43.164;27.786;2022-12-20T04:30:59;102711.03;;;-0.15;74.45
63088;BME280;49173;43.164;27.786;2022-12-20T04:33:27;102716.38;;;-0.14;74.63
63088;BME280;49173;43.164;27.786;2022-12-20T04:35:53;102714.56;;;-0.15;74.65
63088;BME280;49173;43.164;27.786;2022-12-20T04:38:21;102717.94;;;-0.20;74.75
63088;BME280;49173;43.164;27.786;2022-12-20T04:40:48;102727.38;;;-0.29;74.67
63088;BME280;49173;43.164;27.786;2022-12-20T04:43:15;102728.34;;;-0.26;74.54
63088;BME280;49173;43.164;27.786;2022-12-20T04:45:41;102719.63;;;-0.22;74.77
63088;BME280;49173;43.164;27.786;2022-12-20T04:48:09;102725.94;;;-0.17;74.39
63088;BME280;49173;43.164;27.786;2022-12-20T04:50:35;102727.66;;;-0.19;74.65
63088;BME280;49173;43.164;27.786;2022-12-20T04:53:01;102729.28;;;-0.23;74.69
63088;BME280;49173;43.164;27.786;2022-12-20T04:55:45;102723.97;;;-0.24;74.80
63088;BME280;49173;43.164;27.786;2022-12-20T04:58:11;102725.72;;;-0.25;74.78
63088;BME280;49173;43.164;27.786;2022-12-20T05:00:36;102719.69;;;-0.21;74.72
63088;BME280;49173;43.164;27.786;2022-12-20T05:03:02;102712.59;;;-0.22;74.70
63088;BME280;49173;43.164;27.786;2022-12-20T05:05:28;102714.34;;;-0.22;74.72
63088;BME280;49173;43.164;27.786;2022-12-20T05:07:54;102711.78;;;-0.21;74.99
63088;BME280;49173;43.164;27.786;2022-12-20T05:10:20;102707.31;;;-0.22;75.12
63088;BME280;49173;43.164;27.786;2022-12-20T05:12:46;102718.91;;;-0.17;74.97
63088;BME280;49173;43.164;27.786;2022-12-20T05:15:12;102718.09;;;-0.14;75.08
63088;BME280;49173;43.164;27.786;2022-12-20T05:17:38;102711.88;;;-0.16;74.91
63088;BME280;49173;43.164;27.786;2022-12-20T05:20:05;102711.97;;;-0.13;75.01
63088;BME280;49173;43.164;27.786;2022-12-20T05:22:32;102716.47;;;-0.09;74.89
63088;BME280;49173;43.164;27.786;2022-12-20T05:25:16;102717.31;;;-0.10;74.53
63088;BME280;49173;43.164;27.786;2022-12-20T05:28:00;102721.69;;;-0.12;74.77
63088;BME280;49173;43.164;27.786;2022-12-20T05:30:26;102718.09;;;-0.14;74.92
63088;BME280;49173;43.164;27.786;2022-12-20T05:32:52;102720.78;;;-0.13;74.99
63088;BME280;49173;43.164;27.786;2022-12-20T05:35:18;102724.28;;;-0.14;75.26
63088;BME280;49173;43.164;27.786;2022-12-20T05:37:45;102725.22;;;-0.12;75.31
63088;BME280;49173;43.164;27.786;2022-12-20T05:40:11;102722.66;;;-0.09;75.10
63088;BME280;49173;43.164;27.786;2022-12-20T05:42:37;102722.66;;;-0.09;75.05
63088;BME280;49173;43.164;27.786;2022-12-20T05:45:04;102712.97;;;-0.08;75.06
63088;BME280;49173;43.164;27.786;2022-12-20T05:47:31;102723.59;;;-0.07;74.79
63088;BME280;49173;43.164;27.786;2022-12-20T05:49:59;102717.41;;;-0.07;74.80
63088;BME280;49173;43.164;27.786;2022-12-20T05:52:25;102721.88;;;-0.05;74.75
63088;BME280;49173;43.164;27.786;2022-12-20T05:54:51;102717.50;;;-0.04;74.74
63088;BME280;49173;43.164;27.786;2022-12-20T05:57:17;102715.63;;;-0.08;74.90
63088;BME280;49173;43.164;27.786;2022-12-20T05:59:43;102718.38;;;-0.04;75.06
63088;BME280;49173;43.164;27.786;2022-12-20T06:02:09;102713.97;;;-0.05;74.76
63088;BME280;49173;43.164;27.786;2022-12-20T06:04:37;102710.44;;;-0.05;74.84
63088;BME280;49173;43.164;27.786;2022-12-20T06:07:04;102715.81;;;-0.01;74.75
63088;BME280;49173;43.164;27.786;2022-12-20T06:09:33;102731.72;;;0.01;74.61
63088;BME280;49173;43.164;27.786;2022-12-20T06:11:58;102729.97;;;0.02;74.88
63088;BME280;49173;43.164;27.786;2022-12-20T06:14:25;102729.06;;;0.01;74.93
63088;BME280;49173;43.164;27.786;2022-12-20T06:16:51;102733.50;;;0.02;74.87
63088;BME280;49173;43.164;27.786;2022-12-20T06:19:17;102723.81;;;0.01;74.93
63088;BME280;49173;43.164;27.786;2022-12-20T06:21:43;102723.81;;;0.01;74.89
63088;BME280;49173;43.164;27.786;2022-12-20T06:24:09;102717.63;;;0.01;74.72
63088;BME280;49173;43.164;27.786;2022-12-20T06:26:35;102727.44;;;0.06;74.73
63088;BME280;49173;43.164;27.786;2022-12-20T06:29:05;102716.03;;;0.07;74.97
63088;BME280;49173;43.164;27.786;2022-12-20T06:31:35;102716.03;;;0.07;74.74
63088;BME280;49173;43.164;27.786;2022-12-20T06:34:01;102716.03;;;0.07;75.17
63088;BME280;49173;43.164;27.786;2022-12-20T06:36:26;102725.81;;;0.11;74.35
63088;BME280;49173;43.164;27.786;2022-12-20T06:38:52;102721.44;;;0.13;74.74
63088;BME280;49173;43.164;27.786;2022-12-20T06:41:18;102715.38;;;0.16;74.60
63088;BME280;49173;43.164;27.786;2022-12-20T06:43:44;102723.34;;;0.17;74.88
63088;BME280;49173;43.164;27.786;2022-12-20T06:46:10;102721.59;;;0.19;74.72
63088;BME280;49173;43.164;27.786;2022-12-20T06:48:35;102724.28;;;0.21;74.65
63088;BME280;49173;43.164;27.786;2022-12-20T06:51:02;102727.03;;;0.24;74.51
63088;BME280;49173;43.164;27.786;2022-12-20T06:53:27;102720.00;;;0.24;74.34
63088;BME280;49173;43.164;27.786;2022-12-20T06:55:53;102723.53;;;0.25;74.79
63088;BME280;49173;43.164;27.786;2022-12-20T06:58:19;102728.97;;;0.31;74.74
63088;BME280;49173;43.164;27.786;2022-12-20T07:00:46;102722.00;;;0.35;74.62
63088;BME280;49173;43.164;27.786;2022-12-20T07:03:12;102724.69;;;0.36;74.67
63088;BME280;49173;43.164;27.786;2022-12-20T07:05:38;102721.16;;;0.36;74.68
63088;BME280;49173;43.164;27.786;2022-12-20T07:08:04;102722.16;;;0.41;74.89
63088;BME280;49173;43.164;27.786;2022-12-20T07:10:32;102718.78;;;0.46;74.86
63088;BME280;49173;43.164;27.786;2022-12-20T07:12:59;102717.94;;;0.49;74.40
63088;BME280;49173;43.164;27.786;2022-12-20T07:15:25;102720.66;;;0.52;75.00
63088;BME280;49173;43.164;27.786;2022-12-20T07:17:50;102729.53;;;0.54;74.73
63088;BME280;49173;43.164;27.786;2022-12-20T07:20:16;102726.09;;;0.58;74.61
63088;BME280;49173;43.164;27.786;2022-12-20T07:22:42;102719.97;;;0.59;74.54
63088;BME280;49173;43.164;27.786;2022-12-20T07:25:10;102716.50;;;0.63;74.58
63088;BME280;49173;43.164;27.786;2022-12-20T07:27:35;102718.38;;;0.67;74.11
63088;BME280;49173;43.164;27.786;2022-12-20T07:30:02;102718.44;;;0.70;74.11
63088;BME280;49173;43.164;27.786;2022-12-20T07:32:28;102717.78;;;0.79;74.39
63088;BME280;49173;43.164;27.786;2022-12-20T07:34:54;102716.97;;;0.83;74.01
63088;BME280;49173;43.164;27.786;2022-12-20T07:37:20;102706.53;;;0.88;73.75
63088;BME280;49173;43.164;27.786;2022-12-20T07:39:45;102708.38;;;0.92;73.77
63088;BME280;49173;43.164;27.786;2022-12-20T07:42:11;102699.69;;;0.97;73.77
63088;BME280;49173;43.164;27.786;2022-12-20T07:44:37;102697.16;;;1.02;73.68
63088;BME280;49173;43.164;27.786;2022-12-20T07:47:02;102685.78;;;1.06;73.80
63088;BME280;49173;43.164;27.786;2022-12-20T07:49:28;102687.63;;;1.10;73.79
63088;BME280;49173;43.164;27.786;2022-12-20T07:51:56;102677.97;;;1.12;73.53
63088;BME280;49173;43.164;27.786;2022-12-20T07:54:37;102683.41;;;1.20;73.94
63088;BME280;49173;43.164;27.786;2022-12-20T07:57:16;102677.34;;;1.25;73.27
63088;BME280;49173;43.164;27.786;2022-12-20T07:59:46;102679.25;;;1.32;73.26
63088;BME280;49173;43.164;27.786;2022-12-20T08:02:17;102668.75;;;1.35;72.83
63088;BME280;49173;43.164;27.786;2022-12-20T08:04:45;102670.56;;;1.38;72.88
63088;BME280;49173;43.164;27.786;2022-12-20T08:07:11;102663.50;;;1.38;72.55
63088;BME280;49173;43.164;27.786;2022-12-20T08:09:40;102660.91;;;1.40;72.37
63088;BME280;49173;43.164;27.786;2022-12-20T08:12:09;102655.69;;;1.43;72.35
63088;BME280;49173;43.164;27.786;2022-12-20T08:14:36;102662.78;;;1.46;72.64
63088;BME280;49173;43.164;27.786;2022-12-20T08:17:02;102665.50;;;1.49;72.52
63088;BME280;49173;43.164;27.786;2022-12-20T08:19:28;102666.44;;;1.52;72.78
63088;BME280;49173;43.164;27.786;2022-12-20T08:21:54;102666.50;;;1.55;72.87
63088;BME280;49173;43.164;27.786;2022-12-20T08:24:20;102658.63;;;1.60;72.58
63088;BME280;49173;43.164;27.786;2022-12-20T08:26:45;102663.19;;;1.69;72.26
63088;BME280;49173;43.164;27.786;2022-12-20T08:29:11;102658.00;;;1.73;72.40
63088;BME280;49173;43.164;27.786;2022-12-20T08:31:38;102664.25;;;1.77;72.66
63088;BME280;49173;43.164;27.786;2022-12-20T08:34:05;102663.44;;;1.82;72.68
63088;BME280;49173;43.164;27.786;2022-12-20T08:36:31;102651.19;;;1.87;72.68
63088;BME280;49173;43.164;27.786;2022-12-20T08:38:57;102648.56;;;1.89;72.12
63088;BME280;49173;43.164;27.786;2022-12-20T08:41:23;102645.97;;;1.90;72.16
63088;BME280;49173;43.164;27.786;2022-12-20T08:43:49;102645.97;;;1.90;71.90
63088;BME280;49173;43.164;27.786;2022-12-20T08:46:15;102638.03;;;1.92;71.66
63088;BME280;49173;43.164;27.786;2022-12-20T08:48:41;102624.78;;;1.90;71.89
63088;BME280;49173;43.164;27.786;2022-12-20T08:51:08;102625.69;;;1.91;71.74
63088;BME280;49173;43.164;27.786;2022-12-20T08:53:35;102616.88;;;1.92;72.22
63088;BME280;49173;43.164;27.786;2022-12-20T08:56:16;102621.31;;;1.95;72.20
63088;BME280;49173;43.164;27.786;2022-12-20T08:58:43;102608.94;;;1.95;72.45
63088;BME280;49173;43.164;27.786;2022-12-20T09:01:12;102608.09;;;1.96;72.35
63088;BME280;49173;43.164;27.786;2022-12-20T09:03:39;102604.53;;;1.96;72.25
63088;BME280;49173;43.164;27.786;2022-12-20T09:06:07;102598.44;;;1.98;72.74
63088;BME280;49173;43.164;27.786;2022-12-20T09:08:34;102593.16;;;2.00;72.72
63088;BME280;49173;43.164;27.786;2022-12-20T09:11:12;102585.13;;;1.97;72.83
63088;BME280;49173;43.164;27.786;2022-12-20T09:13:39;102591.38;;;1.99;72.47
63088;BME280;49173;43.164;27.786;2022-12-20T09:16:06;102582.56;;;2.00;73.10
63088;BME280;49173;43.164;27.786;2022-12-20T09:18:33;102583.44;;;1.99;72.89
63088;BME280;49173;43.164;27.786;2022-12-20T09:21:00;102580.81;;;2.02;73.32
63088;BME280;49173;43.164;27.786;2022-12-20T09:23:27;102579.06;;;2.04;73.06
63088;BME280;49173;43.164;27.786;2022-12-20T09:25:54;102578.22;;;2.05;72.47
63088;BME280;49173;43.164;27.786;2022-12-20T09:28:20;102573.84;;;2.07;73.32
63088;BME280;49173;43.164;27.786;2022-12-20T09:30:48;102567.72;;;2.11;73.21
63088;BME280;49173;43.164;27.786;2022-12-20T09:33:13;102567.78;;;2.15;73.35
63088;BME280;49173;43.164;27.786;2022-12-20T09:35:46;102555.50;;;2.20;73.65
63088;BME280;49173;43.164;27.786;2022-12-20T09:38:12;102557.38;;;2.28;73.57
63088;BME280;49173;43.164;27.786;2022-12-20T09:40:47;102544.22;;;2.35;73.13
63088;BME280;49173;43.164;27.786;2022-12-20T09:43:15;102540.75;;;2.39;72.96
63088;BME280;49173;43.164;27.786;2022-12-20T09:45:42;102541.69;;;2.41;72.76
63088;BME280;49173;43.164;27.786;2022-12-20T09:48:23;102534.63;;;2.43;72.64
63088;BME280;49173;43.164;27.786;2022-12-20T09:56:47;102532.13;;;2.54;72.02
63088;BME280;49173;43.164;27.786;2022-12-20T09:59:19;102515.34;;;2.55;72.22
63088;BME280;49173;43.164;27.786;2022-12-20T10:01:47;102511.84;;;2.58;72.59
63088;BME280;49173;43.164;27.786;2022-12-20T10:04:27;102515.47;;;2.67;72.58
63088;BME280;49173;43.164;27.786;2022-12-20T10:12:41;102504.28;;;2.93;72.33
63088;BME280;49173;43.164;27.786;2022-12-20T10:15:21;102505.25;;;3.01;71.31
63088;BME280;49173;43.164;27.786;2022-12-20T10:18:08;102506.22;;;3.08;71.95
63088;BME280;49173;43.164;27.786;2022-12-20T10:21:32;102497.44;;;3.15;70.96
63088;BME280;49173;43.164;27.786;2022-12-20T10:23:59;102497.50;;;3.21;71.03
63088;BME280;49173;43.164;27.786;2022-12-20T10:26:27;102490.47;;;3.26;70.80
63088;BME280;49173;43.164;27.786;2022-12-20T10:28:53;102488.75;;;3.31;71.23
63088;BME280;49173;43.164;27.786;2022-12-20T10:31:19;102487.06;;;3.39;71.32
63088;BME280;49173;43.164;27.786;2022-12-20T10:33:45;102483.59;;;3.48;70.99
63088;BME280;49173;43.164;27.786;2022-12-20T10:36:26;102477.41;;;3.52;70.66
63088;BME280;49173;43.164;27.786;2022-12-20T10:38:57;102465.97;;;3.57;70.28
63088;BME280;49173;43.164;27.786;2022-12-20T10:41:26;102459.81;;;3.62;69.88
63088;BME280;49173;43.164;27.786;2022-12-20T10:43:57;102464.25;;;3.66;70.02
63088;BME280;49173;43.164;27.786;2022-12-20T10:46:47;102455.44;;;3.70;70.02
63088;BME280;49173;43.164;27.786;2022-12-20T10:49:36;102448.41;;;3.78;70.49
63088;BME280;49173;43.164;27.786;2022-12-20T10:52:12;102439.59;;;3.85;70.33
63088;BME280;49173;43.164;27.786;2022-12-20T10:54:41;102439.63;;;3.88;70.10
63088;BME280;49173;43.164;27.786;2022-12-20T10:57:15;102438.72;;;3.88;69.06
63088;BME280;49173;43.164;27.786;2022-12-20T10:59:47;102431.63;;;3.86;69.15
63088;BME280;49173;43.164;27.786;2022-12-20T11:02:24;102428.97;;;3.85;68.85
63088;BME280;49173;43.164;27.786;2022-12-20T11:07:31;102432.50;;;3.81;69.68
63088;BME280;49173;43.164;27.786;2022-12-20T11:10:00;102423.66;;;3.83;69.93
63088;BME280;49173;43.164;27.786;2022-12-20T11:12:26;102405.94;;;3.87;69.82
63088;BME280;49173;43.164;27.786;2022-12-20T11:15:18;102399.78;;;3.90;70.08
63088;BME280;49173;43.164;27.786;2022-12-20T11:17:47;102406.88;;;3.91;69.78
63088;BME280;49173;43.164;27.786;2022-12-20T11:42:42;102348.44;;;3.92;69.83
63088;BME280;49173;43.164;27.786;2022-12-20T11:55:53;102335.19;;;3.95;71.10
63088;BME280;49173;43.164;27.786;2022-12-20T12:01:16;102321.00;;;3.96;70.35
63088;BME280;49173;43.164;27.786;2022-12-20T12:03:51;102326.34;;;4.02;70.37
63088;BME280;49173;43.164;27.786;2022-12-20T12:06:31;102318.34;;;3.99;70.66
63088;BME280;49173;43.164;27.786;2022-12-20T12:09:27;102316.59;;;4.00;70.47
63088;BME280;49173;43.164;27.786;2022-12-20T12:12:04;102314.84;;;4.05;70.85
63088;BME280;49173;43.164;27.786;2022-12-20T12:15:18;102312.22;;;4.09;70.81
63088;BME280;49173;43.164;27.786;2022-12-20T12:17:57;102317.50;;;4.16;70.81
63088;BME280;49173;43.164;27.786;2022-12-20T12:25:43;102307.81;;;4.28;71.33
63088;BME280;49173;43.164;27.786;2022-12-20T12:28:12;102310.47;;;4.31;70.88
63088;BME280;49173;43.164;27.786;2022-12-20T12:30:42;102307.81;;;4.34;71.01
63088;BME280;49173;43.164;27.786;2022-12-20T12:33:15;102315.81;;;4.42;70.78
63088;BME280;49173;43.164;27.786;2022-12-20T12:42:11;102304.31;;;4.45;70.84
63088;BME280;49173;43.164;27.786;2022-12-20T12:47:44;102314.06;;;4.44;71.08
63088;BME280;49173;43.164;27.786;2022-12-20T12:50:33;102308.72;;;4.50;71.31
63088;BME280;49173;43.164;27.786;2022-12-20T12:53:16;102298.09;;;4.55;71.54
63088;BME280;49173;43.164;27.786;2022-12-20T12:55:48;102298.97;;;4.57;71.17
63088;BME280;49173;43.164;27.786;2022-12-20T13:00:51;102291.03;;;4.60;70.85
63088;BME280;49173;43.164;27.786;2022-12-20T13:11:32;102293.66;;;4.57;70.57
63088;BME280;49173;43.164;27.786;2022-12-20T13:16:43;102291.00;;;4.64;70.39
63088;BME280;49173;43.164;27.786;2022-12-20T13:19:31;102290.13;;;4.67;70.94
63088;BME280;49173;43.164;27.786;2022-12-20T13:27:30;102291.91;;;4.74;70.79
63088;BME280;49173;43.164;27.786;2022-12-20T13:30:44;102292.81;;;4.75;71.13
63088;BME280;49173;43.164;27.786;2022-12-20T13:37:56;102284.81;;;4.73;70.26
63088;BME280;49173;43.164;27.786;2022-12-20T13:40:38;102283.03;;;4.71;70.13
63088;BME280;49173;43.164;27.786;2022-12-20T13:48:32;102272.41;;;4.74;70.81
63088;BME280;49173;43.164;27.786;2022-12-20T13:51:01;102266.19;;;4.75;70.44
63088;BME280;49173;43.164;27.786;2022-12-20T13:53:27;102266.19;;;4.75;70.97
63088;BME280;49173;43.164;27.786;2022-12-20T13:55:54;102262.66;;;4.76;71.02
63088;BME280;49173;43.164;27.786;2022-12-20T13:58:25;102259.13;;;4.74;70.84
63088;BME280;49173;43.164;27.786;2022-12-20T14:00:53;102259.09;;;4.72;70.91
63088;BME280;49173;43.164;27.786;2022-12-20T14:03:29;102252.03;;;4.73;71.06
63088;BME280;49173;43.164;27.786;2022-12-20T14:06:02;102252.00;;;4.69;71.05
63088;BME280;49173;43.164;27.786;2022-12-20T14:08:33;102251.13;;;4.67;70.90
63088;BME280;49173;43.164;27.786;2022-12-20T14:11:26;102241.38;;;4.66;70.76
63088;BME280;49173;43.164;27.786;2022-12-20T14:13:58;102238.72;;;4.63;70.49
63088;BME280;49173;43.164;27.786;2022-12-20T14:16:26;102238.72;;;4.60;70.19
63088;BME280;49173;43.164;27.786;2022-12-20T14:21:22;102228.97;;;4.59;70.50
63088;BME280;49173;43.164;27.786;2022-12-20T14:23:51;102218.34;;;4.55;70.86
63088;BME280;49173;43.164;27.786;2022-12-20T14:26:31;102218.34;;;4.52;70.35
63088;BME280;49173;43.164;27.786;2022-12-20T14:28:59;102214.78;;;4.48;70.90
63088;BME280;49173;43.164;27.786;2022-12-20T14:40:13;102196.19;;;4.37;71.14
63088;BME280;49173;43.164;27.786;2022-12-20T14:42:40;102206.81;;;4.34;71.33
63088;BME280;49173;43.164;27.786;2022-12-20T14:45:20;102194.41;;;4.32;71.50
63088;BME280;49173;43.164;27.786;2022-12-20T14:48:03;102201.47;;;4.30;71.63
63088;BME280;49173;43.164;27.786;2022-12-20T14:50:33;102195.31;;;4.25;72.12
63088;BME280;49173;43.164;27.786;2022-12-20T14:53:00;102201.50;;;4.25;72.45
63088;BME280;49173;43.164;27.786;2022-12-20T14:55:31;102197.06;;;4.23;72.23
63088;BME280;49173;43.164;27.786;2022-12-20T14:57:58;102198.84;;;4.21;72.62
63088;BME280;49173;43.164;27.786;2022-12-20T15:00:27;102197.06;;;4.20;72.37
63088;BME280;49173;43.164;27.786;2022-12-20T15:08:32;102186.44;;;4.12;72.81
63088;BME280;49173;43.164;27.786;2022-12-20T15:13:39;102187.31;;;4.05;72.97
63088;BME280;49173;43.164;27.786;2022-12-20T15:16:15;102176.66;;;4.00;72.71